Time;durP1;ratioP1;P1;durP2;ratioP2;P2;SDS_P1;SDS_P2;PMS_P1;PMS_P2;Temp;Humidity;BMP_temperature;BMP_pressure;BME280_temperature;BME280_humidity;BME280_pressure;Samples;Min_cycle;Max_cycle;Signal;HPM_P1;HPM_P2
2023/08/21 00:01:22;;;;;;;8.77;1.90;;;16.30;99.90;;;;;;5061010;28;20060;-72
2023/08/21 00:03:48;;;;;;;7.63;1.52;;;16.20;99.90;;;;;;5015162;28;20045;-72
2023/08/21 00:06:14;;;;;;;9.95;1.98;;;16.10;99.90;;;;;;5057301;28;20053;-72
2023/08/21 00:08:40;;;;;;;7.78;2.00;;;16.10;99.90;;;;;;5027994;28;20083;-72
2023/08/21 00:11:07;;;;;;;8.32;2.20;;;16.10;99.90;;;;;;5067546;28;20068;-72
2023/08/21 00:13:33;;;;;;;9.23;2.10;;;16.00;99.90;;;;;;5013762;28;20400;-71
2023/08/21 00:15:59;;;;;;;9.05;2.10;;;16.00;99.90;;;;;;5058139;28;20067;-70
2023/08/21 00:18:25;;;;;;;8.93;2.10;;;16.00;99.90;;;;;;5019581;28;20040;-70
2023/08/21 00:20:51;;;;;;;8.82;1.77;;;15.90;99.90;;;;;;5060331;28;20056;-71
2023/08/21 00:23:18;;;;;;;8.23;1.88;;;15.80;99.90;;;;;;5028914;28;20051;-71
2023/08/21 00:25:46;;;;;;;9.43;2.20;;;15.80;99.90;;;;;;5061755;28;20049;-73
2023/08/21 00:28:12;;;;;;;7.53;1.73;;;15.70;99.90;;;;;;5020861;28;20040;-71
2023/08/21 00:30:39;;;;;;;6.85;1.52;;;15.70;99.90;;;;;;5059962;28;20062;-72
2023/08/21 00:33:05;;;;;;;6.25;1.40;;;15.70;99.90;;;;;;5018747;28;20048;-73
2023/08/21 00:35:31;;;;;;;6.68;1.50;;;15.60;99.90;;;;;;5058520;28;20052;-71
2023/08/21 00:37:57;;;;;;;6.93;1.52;;;15.60;99.90;;;;;;5019446;28;20067;-70
2023/08/21 00:40:23;;;;;;;6.63;1.55;;;15.60;99.90;;;;;;5056167;28;20048;-71
2023/08/21 00:42:49;;;;;;;6.40;1.40;;;15.60;99.90;;;;;;5026888;28;20052;-71
2023/08/21 00:45:16;;;;;;;6.30;1.40;;;15.60;99.90;;;;;;5057515;28;20415;-70
2023/08/21 00:47:43;;;;;;;7.75;1.50;;;15.60;99.90;;;;;;5019006;28;20060;-70
2023/08/21 00:50:11;;;;;;;7.70;1.52;;;15.50;99.90;;;;;;5056965;28;20048;-71
2023/08/21 00:52:40;;;;;;;7.78;1.45;;;15.50;99.90;;;;;;4995637;28;252616;-71
2023/08/21 00:55:07;;;;;;;6.82;1.60;;;15.50;99.90;;;;;;5062684;28;20059;-73
2023/08/21 00:57:34;;;;;;;6.95;1.73;;;15.40;99.90;;;;;;5028294;28;20435;-72
2023/08/21 01:00:01;;;;;;;7.10;1.42;;;15.40;99.90;;;;;;5065038;28;20526;-71
2023/08/21 01:02:27;;;;;;;8.27;1.88;;;15.40;99.90;;;;;;5033577;28;20044;-71
2023/08/21 01:04:53;;;;;;;8.82;1.80;;;15.30;99.90;;;;;;5066923;28;20056;-72
2023/08/21 01:07:19;;;;;;;7.35;2.05;;;15.30;99.90;;;;;;5023309;28;20534;-72
2023/08/21 01:10:08;;;;;;;7.78;1.65;;;15.30;99.90;;;;;;5055264;28;20037;-71
2023/08/21 01:12:43;;;;;;;6.75;1.77;;;15.30;99.90;;;;;;5023285;28;20131;-70
2023/08/21 01:15:09;;;;;;;8.70;1.95;;;15.20;99.90;;;;;;5049212;28;20057;-71
2023/08/21 01:17:40;;;;;;;7.63;1.70;;;15.20;99.90;;;;;;5024196;28;20142;-71
2023/08/21 01:20:10;;;;;;;9.07;1.90;;;15.10;99.90;;;;;;5068180;28;20059;-70
2023/08/21 01:22:38;;;;;;;7.15;1.77;;;15.10;99.90;;;;;;5030158;28;20291;-70
2023/08/21 01:25:05;;;;;;;10.65;1.95;;;15.10;99.90;;;;;;5070873;28;20064;-71
2023/08/21 01:27:33;;;;;;;7.47;1.83;;;15.00;99.90;;;;;;5021326;28;20048;-72
2023/08/21 01:30:00;;;;;;;7.93;2.00;;;15.00;99.90;;;;;;5057690;28;20044;-73
2023/08/21 01:33:14;;;;;;;10.52;2.10;;;14.90;99.90;;;;;;5026268;28;20087;-73
2023/08/21 01:35:40;;;;;;;9.15;2.22;;;14.90;99.90;;;;;;5052317;28;20048;-71
2023/08/21 01:38:07;;;;;;;7.20;1.70;;;14.90;99.90;;;;;;5017395;28;20538;-72
2023/08/21 01:40:33;;;;;;;8.73;2.00;;;14.80;99.90;;;;;;5068822;28;20060;-71
2023/08/21 01:42:59;;;;;;;8.82;2.03;;;14.80;99.90;;;;;;5010373;28;20527;-71
2023/08/21 01:45:26;;;;;;;8.02;1.92;;;14.80;99.90;;;;;;5059309;28;20045;-71
2023/08/21 01:47:52;;;;;;;9.00;2.38;;;14.80;99.90;;;;;;5028499;28;20049;-72
2023/08/21 01:50:18;;;;;;;7.65;1.92;;;14.70;99.90;;;;;;5055468;28;20052;-72
2023/08/21 01:52:44;;;;;;;8.90;2.15;;;14.70;99.90;;;;;;5008516;28;232904;-70
2023/08/21 01:55:11;;;;;;;8.05;2.25;;;14.70;99.90;;;;;;5063261;28;20029;-72
2023/08/21 01:57:37;;;;;;;8.75;2.03;;;14.70;99.90;;;;;;5021073;28;20044;-71
2023/08/21 02:00:04;;;;;;;8.45;2.03;;;14.70;99.90;;;;;;5057357;28;20996;-70
2023/08/21 02:02:31;;;;;;;8.45;2.17;;;14.70;99.90;;;;;;5035165;28;20048;-70
2023/08/21 02:04:57;;;;;;;8.93;2.42;;;14.70;99.90;;;;;;5062746;28;20064;-72
2023/08/21 02:07:23;;;;;;;9.65;2.78;;;14.70;99.90;;;;;;5024370;28;20053;-72
2023/08/21 02:09:49;;;;;;;11.63;2.80;;;14.70;99.90;;;;;;5061363;28;20056;-72
2023/08/21 02:12:15;;;;;;;9.75;2.70;;;14.60;99.90;;;;;;5032183;28;20059;-71
2023/08/21 02:14:41;;;;;;;13.50;3.88;;;14.60;99.90;;;;;;5060398;28;20044;-74
2023/08/21 02:17:07;;;;;;;12.77;3.47;;;14.60;99.90;;;;;;5022765;28;20074;-71
2023/08/21 02:19:33;;;;;;;9.48;2.97;;;14.60;99.90;;;;;;5047137;28;20069;-71
2023/08/21 02:21:59;;;;;;;9.32;2.58;;;14.50;99.90;;;;;;5023404;28;20408;-72
2023/08/21 02:24:25;;;;;;;9.25;2.85;;;14.50;99.90;;;;;;5068703;28;20048;-72
2023/08/21 02:26:51;;;;;;;10.27;3.28;;;14.50;99.90;;;;;;5023754;28;20056;-71
2023/08/21 02:29:17;;;;;;;12.95;2.60;;;14.50;99.90;;;;;;5049036;28;20052;-71
2023/08/21 02:31:44;;;;;;;9.65;2.58;;;14.50;99.90;;;;;;5022334;28;20057;-70
2023/08/21 02:34:10;;;;;;;8.50;2.72;;;14.40;99.90;;;;;;5059513;28;20048;-72
2023/08/21 02:36:36;;;;;;;10.52;2.55;;;14.40;99.90;;;;;;5045969;28;20048;-69
2023/08/21 02:39:03;;;;;;;9.48;2.42;;;14.40;99.90;;;;;;5018664;28;20504;-73
2023/08/21 02:41:29;;;;;;;11.02;2.70;;;14.40;99.90;;;;;;5061424;28;20083;-72
2023/08/21 02:43:55;;;;;;;8.50;2.38;;;14.40;99.90;;;;;;5025170;28;20056;-75
2023/08/21 02:46:21;;;;;;;11.70;3.45;;;14.30;99.90;;;;;;5062573;28;20051;-71
2023/08/21 02:48:48;;;;;;;10.23;2.97;;;14.40;99.90;;;;;;5017343;28;20044;-71
2023/08/21 02:51:14;;;;;;;11.57;2.80;;;14.30;99.90;;;;;;5054236;28;20061;-71
2023/08/21 02:53:40;;;;;;;11.32;3.10;;;14.30;99.90;;;;;;4998729;28;74615;-71
2023/08/21 02:56:06;;;;;;;12.35;2.70;;;14.30;99.90;;;;;;5064966;28;20048;-71
2023/08/21 02:58:32;;;;;;;10.80;3.03;;;14.20;99.90;;;;;;5023775;28;20515;-70
2023/08/21 03:00:59;;;;;;;10.13;3.10;;;14.20;99.90;;;;;;5060736;28;20526;-70
2023/08/21 03:03:25;;;;;;;12.02;2.88;;;14.20;99.90;;;;;;5024242;28;20048;-70
2023/08/21 03:05:51;;;;;;;10.95;2.83;;;14.10;99.90;;;;;;5063421;28;20515;-71
2023/08/21 03:08:17;;;;;;;9.88;2.80;;;14.20;99.90;;;;;;5001400;28;20063;-72
2023/08/21 03:10:43;;;;;;;9.73;2.30;;;14.10;99.90;;;;;;5054469;28;20068;-70
2023/08/21 03:13:09;;;;;;;7.60;2.08;;;14.10;99.90;;;;;;5018892;28;20053;-73
2023/08/21 03:15:35;;;;;;;11.57;2.60;;;14.10;99.90;;;;;;5061001;28;20061;-69
2023/08/21 03:18:01;;;;;;;8.40;2.10;;;14.10;99.90;;;;;;5029201;28;20667;-70
2023/08/21 03:20:27;;;;;;;9.90;2.58;;;14.00;99.90;;;;;;5063950;28;20064;-71
2023/08/21 03:22:53;;;;;;;9.25;2.40;;;14.10;99.90;;;;;;5029518;28;20055;-70
2023/08/21 03:25:19;;;;;;;8.45;2.70;;;14.00;99.90;;;;;;5055179;28;20060;-72
2023/08/21 03:27:49;;;;;;;11.13;3.05;;;14.00;99.90;;;;;;5015917;28;20049;-72
2023/08/21 03:30:15;;;;;;;11.05;2.85;;;13.90;99.90;;;;;;5061477;28;20064;-71
2023/08/21 03:32:41;;;;;;;10.35;2.97;;;13.90;99.90;;;;;;5019998;28;20044;-69
2023/08/21 03:35:07;;;;;;;10.85;2.80;;;13.90;99.90;;;;;;5060538;28;20057;-72
2023/08/21 03:37:34;;;;;;;9.45;2.75;;;13.90;99.90;;;;;;5019172;28;20051;-71
2023/08/21 03:40:01;;;;;;;12.73;2.85;;;13.90;99.90;;;;;;5048519;28;20089;-72
2023/08/21 03:42:27;;;;;;;11.32;2.83;;;13.90;99.90;;;;;;5029908;28;20052;-71
2023/08/21 03:44:53;;;;;;;10.57;3.33;;;13.80;99.90;;;;;;5062832;28;20048;-71
2023/08/21 03:47:19;;;;;;;10.40;2.92;;;13.80;99.90;;;;;;5026181;28;20067;-71
2023/08/21 03:49:48;;;;;;;8.40;2.47;;;13.80;99.90;;;;;;5059784;28;20048;-71
2023/08/21 03:52:14;;;;;;;9.25;2.65;;;13.80;99.90;;;;;;5002288;28;168432;-72
2023/08/21 03:54:40;;;;;;;10.60;2.40;;;13.70;99.90;;;;;;5051642;28;20067;-72
2023/08/21 03:57:07;;;;;;;7.78;2.28;;;13.70;99.90;;;;;;5025754;28;20052;-72
2023/08/21 03:59:33;;;;;;;12.98;2.60;;;13.60;99.90;;;;;;5062981;28;20056;-71
2023/08/21 04:01:59;;;;;;;10.43;2.60;;;13.70;99.90;;;;;;5019409;28;20045;-71
2023/08/21 04:04:25;;;;;;;10.95;2.50;;;13.60;99.90;;;;;;5056442;28;20435;-71
2023/08/21 04:06:51;;;;;;;10.30;2.67;;;13.60;99.90;;;;;;5025866;28;20071;-71
2023/08/21 04:09:17;;;;;;;8.05;2.45;;;13.60;99.90;;;;;;5063770;28;20060;-71
2023/08/21 04:11:43;;;;;;;7.75;2.17;;;13.50;99.90;;;;;;5023012;28;20419;-70
2023/08/21 04:14:09;;;;;;;6.72;2.17;;;13.50;99.90;;;;;;5062205;28;20055;-70
2023/08/21 04:16:35;;;;;;;9.80;2.47;;;13.50;99.90;;;;;;5044887;28;20056;-71
2023/08/21 04:19:01;;;;;;;9.02;2.40;;;13.50;99.90;;;;;;5027058;28;20044;-71
2023/08/21 04:21:27;;;;;;;12.77;2.50;;;13.40;99.90;;;;;;5061101;28;20056;-71
2023/08/21 04:23:53;;;;;;;7.93;2.42;;;13.40;99.90;;;;;;5010155;28;20048;-71
2023/08/21 04:26:20;;;;;;;8.18;2.50;;;13.40;99.90;;;;;;5060133;28;20041;-72
2023/08/21 04:28:46;;;;;;;12.40;2.97;;;13.40;99.90;;;;;;5015469;28;20530;-70
2023/08/21 04:31:12;;;;;;;8.25;2.10;;;13.40;99.90;;;;;;5061030;28;20142;-70
2023/08/21 04:33:38;;;;;;;8.75;2.33;;;13.40;99.90;;;;;;5037080;28;20052;-71
2023/08/21 04:36:05;;;;;;;8.55;2.50;;;13.40;99.90;;;;;;5057418;28;20055;-71
2023/08/21 04:38:31;;;;;;;8.73;2.60;;;13.40;99.90;;;;;;5020775;28;20056;-71
2023/08/21 04:41:08;;;;;;;11.48;2.40;;;13.40;99.90;;;;;;5065018;28;20622;-72
2023/08/21 04:43:35;;;;;;;9.73;2.30;;;13.40;99.90;;;;;;5023377;28;20055;-71
2023/08/21 04:46:01;;;;;;;9.48;2.47;;;13.40;99.90;;;;;;5057398;28;20049;-70
2023/08/21 04:48:27;;;;;;;12.32;2.92;;;13.40;99.90;;;;;;5028159;28;20059;-70
2023/08/21 04:50:53;;;;;;;8.63;2.30;;;13.40;99.90;;;;;;5057677;28;20103;-72
2023/08/21 04:53:19;;;;;;;8.55;2.15;;;13.40;99.90;;;;;;5003116;28;156503;-72
2023/08/21 04:55:45;;;;;;;10.43;2.63;;;13.40;99.90;;;;;;5060465;28;20524;-73
2023/08/21 04:58:11;;;;;;;10.73;2.22;;;13.50;99.90;;;;;;5020303;28;20048;-74
2023/08/21 05:00:38;;;;;;;10.05;2.40;;;13.50;99.90;;;;;;5064674;28;20056;-71
2023/08/21 05:03:06;;;;;;;8.85;2.28;;;13.50;99.90;;;;;;5027645;28;20059;-71
2023/08/21 05:05:32;;;;;;;10.63;2.40;;;13.60;99.90;;;;;;5062498;28;20063;-71
2023/08/21 05:07:58;;;;;;;8.25;2.15;;;13.60;99.90;;;;;;5016363;28;20037;-72
2023/08/21 05:10:24;;;;;;;9.88;2.30;;;13.70;99.90;;;;;;5052522;28;20057;-70
2023/08/21 05:12:50;;;;;;;8.20;2.15;;;13.70;99.90;;;;;;5022810;28;20064;-71
2023/08/21 05:15:16;;;;;;;9.23;2.75;;;13.80;99.90;;;;;;5062349;28;20079;-73
2023/08/21 05:17:42;;;;;;;9.02;2.60;;;14.00;99.90;;;;;;5020933;28;20531;-71
2023/08/21 05:20:10;;;;;;;8.20;2.20;;;14.40;99.90;;;;;;5052963;28;20051;-72
2023/08/21 05:22:36;;;;;;;11.48;2.90;;;14.70;99.90;;;;;;5009100;28;20405;-71
2023/08/21 05:25:02;;;;;;;13.55;3.35;;;15.10;99.90;;;;;;5047149;28;20048;-71
2023/08/21 05:27:28;;;;;;;9.52;2.75;;;15.40;99.90;;;;;;5023676;28;20501;-73
2023/08/21 05:29:54;;;;;;;8.77;2.40;;;15.70;99.90;;;;;;5062216;28;20557;-71
2023/08/21 05:32:20;;;;;;;10.13;2.85;;;16.10;99.90;;;;;;5025889;28;20048;-73
2023/08/21 05:34:46;;;;;;;10.07;2.70;;;16.40;99.90;;;;;;5054084;28;20045;-71
2023/08/21 05:37:12;;;;;;;10.15;2.63;;;16.70;99.90;;;;;;5034799;28;20534;-71
2023/08/21 05:39:38;;;;;;;10.57;2.80;;;16.90;99.90;;;;;;5071278;28;20044;-71
2023/08/21 05:42:05;;;;;;;10.73;2.80;;;17.20;99.90;;;;;;5026452;28;20063;-71
2023/08/21 05:44:31;;;;;;;11.10;2.63;;;17.50;99.90;;;;;;5062971;28;20054;-71
2023/08/21 05:46:57;;;;;;;12.60;3.35;;;17.70;99.90;;;;;;5020528;28;20461;-73
2023/08/21 05:49:23;;;;;;;9.68;2.70;;;18.00;99.90;;;;;;5062687;28;20065;-74
2023/08/21 05:51:49;;;;;;;12.07;3.00;;;18.20;99.90;;;;;;5008196;28;86714;-72
2023/08/21 05:54:15;;;;;;;9.52;2.90;;;18.50;99.90;;;;;;5045374;28;20053;-71
2023/08/21 05:56:41;;;;;;;10.35;2.80;;;18.70;99.90;;;;;;5022612;28;20044;-71
2023/08/21 05:59:10;;;;;;;11.35;2.72;;;19.00;99.90;;;;;;5045452;28;20518;-72
2023/08/21 06:01:36;;;;;;;10.90;2.90;;;19.30;99.90;;;;;;5043082;28;20423;-74
2023/08/21 06:04:02;;;;;;;10.07;2.90;;;19.60;99.90;;;;;;5049576;28;20051;-71
2023/08/21 06:06:29;;;;;;;11.45;2.80;;;19.80;99.90;;;;;;5056744;28;20056;-72
2023/08/21 06:08:55;;;;;;;10.52;2.63;;;20.00;99.90;;;;;;4992266;28;20049;-71
2023/08/21 06:11:21;;;;;;;9.98;2.53;;;20.30;99.90;;;;;;5061169;28;20060;-72
2023/08/21 06:13:47;;;;;;;9.85;2.35;;;20.50;99.90;;;;;;5011650;28;20051;-73
2023/08/21 06:16:13;;;;;;;10.13;2.40;;;20.60;99.90;;;;;;5031850;28;20057;-72
2023/08/21 06:18:39;;;;;;;10.80;2.60;;;20.60;99.90;;;;;;5014240;28;20451;-71
2023/08/21 06:21:06;;;;;;;11.57;2.90;;;20.60;99.90;;;;;;5038145;28;20056;-73
2023/08/21 06:23:32;;;;;;;11.05;2.65;;;20.60;99.90;;;;;;5005457;28;20072;-71
2023/08/21 06:25:58;;;;;;;9.00;2.28;;;20.70;99.90;;;;;;5034040;28;20049;-70
2023/08/21 06:28:24;;;;;;;9.30;1.90;;;20.80;99.90;;;;;;5016501;28;20499;-69
2023/08/21 06:31:03;;;;;;;10.43;2.20;;;21.00;99.90;;;;;;5034601;28;20045;-70
2023/08/21 06:33:29;;;;;;;9.90;2.20;;;21.00;99.90;;;;;;5016717;28;20052;-73
2023/08/21 06:35:55;;;;;;;10.98;2.35;;;21.00;99.90;;;;;;5036928;28;20401;-72
2023/08/21 06:38:21;;;;;;;9.85;2.33;;;21.00;99.90;;;;;;5016879;28;20076;-72
2023/08/21 06:40:47;;;;;;;12.85;2.47;;;21.10;99.90;;;;;;5033903;28;20034;-74
2023/08/21 06:43:13;;;;;;;10.27;2.17;;;21.40;99.90;;;;;;5014855;28;20052;-73
2023/08/21 06:45:39;;;;;;;9.57;2.35;;;21.50;99.90;;;;;;5033974;28;20503;-72
2023/08/21 06:48:05;;;;;;;10.75;2.17;;;21.80;99.90;;;;;;5001408;28;20055;-72
2023/08/21 06:50:32;;;;;;;8.90;1.75;;;22.10;99.90;;;;;;5036824;28;20538;-72
2023/08/21 06:52:58;;;;;;;9.55;1.80;;;22.40;99.90;;;;;;4994460;28;252434;-71
2023/08/21 06:55:24;;;;;;;9.63;1.90;;;22.70;99.90;;;;;;5041126;28;20427;-70
2023/08/21 06:57:50;;;;;;;11.63;2.40;;;23.00;99.90;;;;;;4987762;28;20075;-70
2023/08/21 07:00:16;;;;;;;10.13;1.95;;;23.20;99.90;;;;;;5023487;28;20061;-71
2023/08/21 07:02:42;;;;;;;8.38;1.63;;;23.50;99.90;;;;;;5005977;28;20037;-70
2023/08/21 07:05:08;;;;;;;9.07;1.90;;;23.60;99.90;;;;;;5033845;28;20644;-71
2023/08/21 07:07:34;;;;;;;10.10;1.70;;;23.70;99.90;;;;;;5010444;28;20056;-70
2023/08/21 07:10:01;;;;;;;9.93;1.85;;;23.70;99.90;;;;;;5035256;28;20072;-70
2023/08/21 07:12:27;;;;;;;7.82;1.33;;;23.70;99.90;;;;;;4993829;28;20053;-71
2023/08/21 07:14:53;;;;;;;10.50;1.70;;;23.80;99.90;;;;;;5024304;28;20491;-70
2023/08/21 07:17:19;;;;;;;7.88;1.48;;;24.00;99.90;;;;;;5008259;28;20075;-70
2023/08/21 07:19:45;;;;;;;9.93;1.70;;;24.10;99.90;;;;;;5048095;28;20052;-71
2023/08/21 07:22:11;;;;;;;11.30;1.80;;;24.00;99.90;;;;;;5008452;28;20534;-71
2023/08/21 07:24:38;;;;;;;9.25;1.52;;;24.00;99.90;;;;;;5037941;28;20057;-71
2023/08/21 07:27:04;;;;;;;9.13;1.58;;;24.20;99.90;;;;;;4984082;28;20087;-70
2023/08/21 07:29:30;;;;;;;7.47;1.30;;;24.10;99.90;;;;;;5049262;28;20048;-70
2023/08/21 07:31:56;;;;;;;8.80;1.40;;;24.00;99.90;;;;;;4999938;28;20061;-72
2023/08/21 07:34:22;;;;;;;10.00;1.67;;;24.00;99.90;;;;;;5053289;28;20966;-73
2023/08/21 07:36:48;;;;;;;7.78;1.52;;;24.10;99.90;;;;;;5001045;28;20056;-73
2023/08/21 07:39:14;;;;;;;9.77;1.55;;;24.20;99.90;;;;;;5076652;28;20063;-74
2023/08/21 07:41:40;;;;;;;8.57;1.45;;;24.30;99.90;;;;;;5031039;28;20045;-72
2023/08/21 07:44:06;;;;;;;9.32;1.60;;;23.90;99.90;;;;;;5075339;28;20063;-72
2023/08/21 07:46:32;;;;;;;9.77;1.80;;;23.90;99.90;;;;;;5056107;28;20431;-70
2023/08/21 07:48:58;;;;;;;8.57;1.38;;;23.90;99.90;;;;;;5036092;28;20044;-71
2023/08/21 07:51:25;;;;;;;7.93;1.20;;;24.00;99.90;;;;;;5060991;28;20427;-70
2023/08/21 07:53:51;;;;;;;8.18;1.35;;;24.40;99.90;;;;;;4994935;28;138063;-70
2023/08/21 07:56:17;;;;;;;8.10;1.10;;;24.80;99.90;;;;;;5061129;28;20075;-70
2023/08/21 07:58:43;;;;;;;9.07;1.38;;;25.20;99.90;;;;;;5028566;28;20079;-70
2023/08/21 08:01:09;;;;;;;7.03;1.08;;;25.50;99.90;;;;;;5052100;28;20051;-70
2023/08/21 08:03:35;;;;;;;8.23;1.35;;;25.70;99.00;;;;;;5019185;28;20591;-69
2023/08/21 08:06:01;;;;;;;8.63;1.60;;;25.90;99.70;;;;;;5059080;28;20049;-70
2023/08/21 08:08:29;;;;;;;7.65;1.42;;;26.20;99.20;;;;;;5019654;28;20587;-70
2023/08/21 08:10:55;;;;;;;8.80;1.45;;;26.60;98.50;;;;;;5058693;28;20060;-71
2023/08/21 08:13:21;;;;;;;7.93;1.55;;;26.80;98.40;;;;;;5024591;28;20546;-70
2023/08/21 08:15:47;;;;;;;8.60;1.45;;;27.20;97.90;;;;;;5065540;28;20071;-70
2023/08/21 08:18:13;;;;;;;9.55;1.60;;;27.20;97.80;;;;;;5012067;28;20071;-69
2023/08/21 08:20:40;;;;;;;11.20;1.55;;;27.50;97.60;;;;;;5058523;28;20074;-68
2023/08/21 08:23:06;;;;;;;8.68;1.40;;;27.70;96.40;;;;;;5032049;28;20052;-69
2023/08/21 08:25:33;;;;;;;7.22;1.33;;;27.70;96.30;;;;;;5044370;28;20451;-69
2023/08/21 08:27:59;;;;;;;7.30;1.20;;;27.40;96.00;;;;;;5015662;28;20041;-72
2023/08/21 08:30:25;;;;;;;8.65;1.30;;;27.40;96.20;;;;;;5039901;28;20057;-69
2023/08/21 08:32:51;;;;;;;10.68;1.35;;;27.70;95.60;;;;;;5011003;28;20048;-71
2023/08/21 08:35:17;;;;;;;9.55;1.58;;;27.80;95.20;;;;;;5039010;28;20455;-71
2023/08/21 08:37:43;;;;;;;7.13;1.10;;;28.10;94.90;;;;;;4995021;28;20068;-71
2023/08/21 08:40:11;;;;;;;7.22;1.30;;;28.10;94.80;;;;;;5040619;28;20060;-70
2023/08/21 08:42:38;;;;;;;7.18;1.40;;;28.10;94.90;;;;;;5009461;28;20075;-72
2023/08/21 08:45:05;;;;;;;7.75;1.40;;;28.40;94.60;;;;;;5062762;28;20059;-70
2023/08/21 08:47:33;;;;;;;6.97;1.20;;;28.80;95.00;;;;;;5015504;28;20052;-70
2023/08/21 08:50:03;;;;;;;9.63;1.40;;;29.30;94.20;;;;;;5056563;28;20049;-72
2023/08/21 08:52:33;;;;;;;6.45;1.35;;;29.30;94.10;;;;;;4998528;28;223904;-72
2023/08/21 08:54:59;;;;;;;;;;;29.70;94.60;;;;;;5056657;28;20044;-71
2023/08/21 08:57:26;;;;;;;8.15;1.40;;;30.20;92.70;;;;;;5020412;28;19958;-71
2023/08/21 08:59:52;;;;;;;7.47;1.35;;;30.20;94.00;;;;;;5048657;28;20416;-71
2023/08/21 09:02:18;;;;;;;10.02;1.50;;;30.10;92.40;;;;;;5027922;28;20426;-71
2023/08/21 09:04:44;;;;;;;12.48;1.60;;;30.00;93.30;;;;;;5058045;28;20057;-71
2023/08/21 09:07:11;;;;;;;16.13;2.40;;;30.20;92.80;;;;;;5021908;28;20115;-70
2023/08/21 09:09:44;;;;;;;15.35;1.77;;;30.40;92.80;;;;;;5050484;28;20056;-71
2023/08/21 09:12:12;;;;;;;23.55;2.08;;;30.80;91.80;;;;;;5015110;28;20051;-70
2023/08/21 09:14:42;;;;;;;14.68;1.75;;;30.70;91.70;;;;;;5055597;28;20075;-69
2023/08/21 09:17:09;;;;;;;9.80;1.40;;;30.60;91.30;;;;;;5023442;28;20466;-70
2023/08/21 09:19:35;;;;;;;6.55;1.30;;;30.00;91.20;;;;;;5055927;28;20056;-70
2023/08/21 09:22:30;;;;;;;8.18;1.40;;;29.70;92.30;;;;;;5021676;28;20451;-72
2023/08/21 09:25:00;;;;;;;9.13;1.50;;;30.10;91.20;;;;;;5052592;28;20059;-70
2023/08/21 09:27:27;;;;;;;8.55;1.10;;;30.70;91.10;;;;;;5021965;28;20052;-71
2023/08/21 09:29:53;;;;;;;7.18;1.10;;;31.20;91.00;;;;;;5070020;28;20143;-71
2023/08/21 09:32:19;;;;;;;5.93;1.10;;;31.40;90.70;;;;;;5017182;28;20053;-70
2023/08/21 09:34:46;;;;;;;7.63;1.35;;;30.90;90.10;;;;;;5042296;28;20052;-69
2023/08/21 09:37:12;;;;;;;9.18;1.35;;;31.10;90.00;;;;;;5018065;28;20056;-69
2023/08/21 09:39:38;;;;;;;8.55;1.48;;;31.50;89.70;;;;;;5039126;28;20056;-69
2023/08/21 09:42:08;;;;;;;7.90;1.10;;;31.70;90.00;;;;;;5024214;28;20056;-69
2023/08/21 09:44:43;;;;;;;7.75;1.20;;;31.80;88.60;;;;;;5066157;28;20060;-70
2023/08/21 09:47:11;;;;;;;9.80;1.63;;;31.70;88.50;;;;;;5015823;28;20540;-71
2023/08/21 09:49:39;;;;;;;9.43;1.38;;;32.00;89.00;;;;;;5060092;28;20060;-70
2023/08/21 09:52:10;;;;;;;15.88;1.98;;;32.30;86.70;;;;;;5009366;28;149660;-71
2023/08/21 09:54:38;;;;;;;24.35;2.45;;;32.30;85.80;;;;;;5060007;28;20053;-70
2023/08/21 09:57:04;;;;;;;13.70;1.88;;;32.30;86.50;;;;;;5023447;28;20051;-75
2023/08/21 09:59:32;;;;;;;6.85;1.20;;;32.60;87.30;;;;;;5060649;28;20068;-74
2023/08/21 10:02:00;;;;;;;6.88;1.15;;;32.70;86.90;;;;;;5022327;28;20068;-70
2023/08/21 10:04:29;;;;;;;8.38;1.27;;;32.90;86.10;;;;;;5054554;28;20060;-70
2023/08/21 10:06:56;;;;;;;9.00;1.45;;;32.70;84.20;;;;;;5019566;28;22112;-71
2023/08/21 10:09:24;;;;;;;6.18;1.20;;;32.40;84.90;;;;;;5036642;28;20113;-70
2023/08/21 10:11:53;;;;;;;5.40;1.10;;;32.50;84.30;;;;;;5022117;28;20068;-72
2023/08/21 10:14:22;;;;;;;8.40;1.48;;;32.60;85.90;;;;;;5046048;28;20052;-71
2023/08/21 10:16:48;;;;;;;5.75;1.05;;;32.60;84.80;;;;;;5019855;28;20079;-69
2023/08/21 10:19:17;;;;;;;6.70;1.20;;;33.00;83.90;;;;;;5061777;28;20056;-70
2023/08/21 10:21:47;;;;;;;10.23;1.42;;;32.90;85.10;;;;;;5020514;28;20053;-70
2023/08/21 10:24:27;;;;;;;6.78;1.33;;;32.80;84.80;;;;;;5042768;28;20065;-72
2023/08/21 10:26:53;;;;;;;8.55;1.40;;;33.00;83.30;;;;;;5021618;28;20040;-72
2023/08/21 10:29:19;;;;;;;7.25;1.17;;;32.60;84.30;;;;;;5057664;28;20044;-71
2023/08/21 10:31:45;;;;;;;7.40;1.38;;;32.30;83.30;;;;;;5018582;28;20060;-70
2023/08/21 10:34:13;;;;;;;7.18;1.15;;;32.10;83.40;;;;;;5048825;28;20049;-70
2023/08/21 10:36:39;;;;;;;7.45;1.40;;;32.30;83.60;;;;;;5026013;28;20056;-70
2023/08/21 10:39:15;;;;;;;5.70;1.27;;;32.50;84.70;;;;;;5052059;28;20542;-73
2023/08/21 10:41:41;;;;;;;5.35;1.13;;;33.00;81.60;;;;;;5024778;28;20053;-71
2023/08/21 10:44:08;;;;;;;8.00;1.25;;;32.40;84.50;;;;;;5048407;28;20041;-70
2023/08/21 10:46:53;;;;;;;5.78;1.15;;;32.50;84.00;;;;;;5040014;28;20059;-70
2023/08/21 10:49:19;;;;;;;8.93;1.40;;;32.60;82.30;;;;;;5037750;28;20526;-71
2023/08/21 10:51:45;;;;;;;7.70;1.33;;;32.80;82.60;;;;;;5006421;28;152965;-72
2023/08/21 10:54:13;;;;;;;7.10;1.02;;;32.80;82.10;;;;;;5049576;28;20057;-72
2023/08/21 10:56:39;;;;;;;6.90;1.40;;;32.40;82.00;;;;;;5002560;28;20420;-74
2023/08/21 10:59:05;;;;;;;7.25;1.67;;;32.50;83.30;;;;;;5042195;28;20057;-73
2023/08/21 11:01:46;;;;;;;6.53;1.30;;;32.90;82.40;;;;;;5068504;28;20056;-70
2023/08/21 11:04:12;;;;;;;6.20;1.10;;;32.90;80.70;;;;;;5002957;28;20453;-71
2023/08/21 11:06:39;;;;;;;5.75;1.10;;;32.70;82.90;;;;;;5008801;28;20033;-71
2023/08/21 11:09:12;;;;;;;6.50;1.20;;;32.10;81.50;;;;;;5066427;28;20053;-67
2023/08/21 11:11:38;;;;;;;5.43;1.10;;;32.00;82.10;;;;;;5007446;28;20061;-68
2023/08/21 11:14:04;;;;;;;6.15;1.20;;;32.40;82.20;;;;;;5058740;28;20042;-71
2023/08/21 11:16:30;;;;;;;20.92;2.67;;;32.50;81.90;;;;;;5042970;28;20512;-71
2023/08/21 11:18:56;;;;;;;15.70;1.85;;;32.00;82.60;;;;;;5012941;28;20061;-72
2023/08/21 11:21:25;;;;;;;7.40;1.40;;;32.00;82.40;;;;;;5039193;28;20052;-74
2023/08/21 11:23:51;;;;;;;17.45;2.38;;;32.40;82.50;;;;;;5015786;28;20052;-71
2023/08/21 11:26:17;;;;;;;9.90;1.67;;;32.60;82.50;;;;;;5042105;28;20053;-70
2023/08/21 11:28:44;;;;;;;6.97;1.27;;;32.50;81.60;;;;;;5036524;28;20044;-70
2023/08/21 11:31:10;;;;;;;36.65;4.10;;;32.40;82.50;;;;;;5042865;28;20048;-71
2023/08/21 11:33:38;;;;;;;29.52;3.33;;;32.40;83.10;;;;;;5033901;28;20046;-70
2023/08/21 11:36:04;;;;;;;11.35;1.85;;;31.90;83.10;;;;;;5040624;28;20534;-71
2023/08/21 11:38:31;;;;;;;9.82;1.40;;;31.30;82.80;;;;;;5028673;28;20127;-70
2023/08/21 11:41:00;;;;;;;10.45;1.50;;;30.80;82.90;;;;;;5043178;28;20503;-71
2023/08/21 11:43:39;;;;;;;25.40;3.30;;;30.40;83.70;;;;;;5023940;28;20064;-71
2023/08/21 11:46:07;;;;;;;11.27;1.88;;;30.70;82.90;;;;;;5056850;28;20412;-70
2023/08/21 11:48:36;;;;;;;6.68;1.40;;;31.10;85.20;;;;;;5011621;28;20063;-70
2023/08/21 11:51:02;;;;;;;7.57;1.67;;;31.70;83.30;;;;;;5064458;28;20059;-70
2023/08/21 11:53:35;;;;;;;8.25;1.40;;;32.10;82.80;;;;;;5011729;28;134272;-73
2023/08/21 11:56:03;;;;;;;4.72;1.08;;;32.20;79.80;;;;;;5055883;28;20063;-71
2023/08/21 11:58:29;;;;;;;8.30;1.33;;;32.30;82.30;;;;;;5021575;28;20049;-71
2023/08/21 12:01:05;;;;;;;8.82;1.45;;;32.80;82.00;;;;;;5060730;28;20068;-71
2023/08/21 12:03:39;;;;;;;8.00;1.48;;;33.10;80.50;;;;;;5035810;28;20426;-73
2023/08/21 12:06:10;;;;;;;12.20;1.83;;;33.50;82.00;;;;;;5061350;28;20048;-74
2023/08/21 12:08:36;;;;;;;6.68;1.33;;;33.40;80.30;;;;;;5021195;28;20056;-71
2023/08/21 12:11:03;;;;;;;6.40;1.10;;;32.80;81.80;;;;;;5061562;28;20052;-70
2023/08/21 12:13:30;;;;;;;8.30;1.20;;;32.50;81.20;;;;;;5011816;28;20052;-70
2023/08/21 12:15:56;;;;;;;8.07;1.50;;;32.40;81.40;;;;;;5058269;28;20053;-70
2023/08/21 12:18:23;;;;;;;6.13;1.13;;;32.30;81.40;;;;;;5010146;28;20044;-70
2023/08/21 12:20:49;;;;;;;7.25;1.40;;;32.30;81.90;;;;;;5063553;28;20574;-71
2023/08/21 12:23:15;;;;;;;8.18;1.30;;;32.50;82.40;;;;;;4994123;28;20083;-70
2023/08/21 12:25:42;;;;;;;8.77;1.17;;;32.70;81.50;;;;;;5055536;28;20056;-71
2023/08/21 12:28:08;;;;;;;6.68;1.30;;;32.50;79.40;;;;;;5036413;28;20067;-71
2023/08/21 12:30:34;;;;;;;6.97;1.40;;;31.80;81.30;;;;;;5067034;28;20418;-71
2023/08/21 12:33:00;;;;;;;7.63;1.27;;;32.20;82.40;;;;;;5024686;28;20131;-72
2023/08/21 12:35:27;;;;;;;7.65;1.20;;;32.50;80.90;;;;;;5062309;28;20060;-70
2023/08/21 12:37:58;;;;;;;6.78;1.00;;;32.70;80.90;;;;;;5023333;28;20075;-70
2023/08/21 12:40:24;;;;;;;9.02;1.30;;;33.30;81.60;;;;;;5060387;28;20067;-71
2023/08/21 12:42:50;;;;;;;8.93;1.17;;;33.50;80.60;;;;;;5028436;28;20131;-72